createdAt,value
2023-02-11T00:01:27.975Z,0.96
2023-02-11T00:03:56.054Z,0.82
2023-02-11T00:06:24.685Z,0.64
2023-02-11T00:08:52.291Z,0.59
2023-02-11T00:11:21.374Z,0.58
2023-02-11T00:13:48.778Z,0.56
2023-02-11T00:16:19.945Z,0.43
2023-02-11T00:18:47.659Z,0.41
2023-02-11T00:21:20.349Z,0.52
2023-02-11T00:23:48.117Z,0.67
2023-02-11T00:26:27.060Z,0.67
2023-02-11T00:28:54.866Z,0.68
2023-02-11T00:31:24.130Z,0.65
2023-02-11T00:33:51.765Z,0.57
2023-02-11T00:36:28.634Z,0.52
2023-02-11T00:38:57.864Z,0.60
2023-02-11T00:41:26.069Z,0.57
2023-02-11T00:43:53.469Z,0.38
2023-02-11T00:46:21.574Z,0.34
2023-02-11T00:48:49.486Z,0.27
2023-02-11T00:51:16.981Z,0.18
2023-02-11T00:53:44.286Z,0.17
2023-02-11T00:56:11.597Z,0.18
2023-02-11T00:58:38.911Z,0.16
2023-02-11T01:01:06.795Z,0.06
2023-02-11T01:03:34.808Z,0.01
2023-02-11T01:06:06.448Z,0.04
2023-02-11T01:08:34.049Z,-0.03
2023-02-11T01:11:05.523Z,0.03
2023-02-11T01:13:37.126Z,0.04
2023-02-11T01:16:07.546Z,-0.08
2023-02-11T01:18:35.308Z,0.02
2023-02-11T01:21:02.724Z,0.08
2023-02-11T01:23:30.184Z,0.06
2023-02-11T01:25:57.681Z,-0.14
2023-02-11T01:28:27.982Z,-0.16
2023-02-11T01:30:59.073Z,-0.32
2023-02-11T01:33:26.456Z,-0.28
2023-02-11T01:35:53.885Z,-0.38
2023-02-11T01:38:24.571Z,-0.37
2023-02-11T01:41:00.016Z,-0.13
2023-02-11T01:43:31.138Z,-0.07
2023-02-11T01:46:02.194Z,-0.09
2023-02-11T01:48:43.777Z,-0.21
2023-02-11T01:51:19.287Z,-0.18
2023-02-11T01:54:08.243Z,-0.15
2023-02-11T01:56:58.194Z,-0.23
2023-02-11T01:59:40.940Z,-0.19
2023-02-11T02:02:11.847Z,-0.20
2023-02-11T02:04:46.512Z,-0.26
2023-02-11T02:07:32.574Z,-0.21
2023-02-11T02:10:05.917Z,-0.31
2023-02-11T02:12:33.757Z,-0.28
2023-02-11T02:15:25.614Z,-0.23
2023-02-11T02:18:31.890Z,-0.37
2023-02-11T02:21:24.080Z,-0.39
2023-02-11T02:24:31.324Z,-0.43
2023-02-11T02:27:10.477Z,-0.39
2023-02-11T02:30:17.545Z,-0.36
2023-02-11T02:33:16.681Z,-0.42
2023-02-11T02:36:04.383Z,-0.33
2023-02-11T02:38:37.858Z,-0.33
2023-02-11T02:41:11.810Z,-0.33
2023-02-11T02:43:45.124Z,-0.38
2023-02-11T02:46:16.643Z,-0.47
2023-02-11T02:48:46.709Z,-0.48
2023-02-11T02:51:43.007Z,-0.54
2023-02-11T02:54:41.045Z,-0.66
2023-02-11T02:57:40.703Z,-0.74
2023-02-11T03:00:49.357Z,-0.77
2023-02-11T03:03:47.290Z,-0.73
2023-02-11T03:06:51.407Z,-0.91
2023-02-11T03:09:44.061Z,-0.79
2023-02-11T03:12:13.664Z,-0.71
2023-02-11T03:14:42.062Z,-0.79
2023-02-11T03:17:10.411Z,-0.84
2023-02-11T03:19:41.090Z,-0.80
2023-02-11T03:22:17.260Z,-0.80
2023-02-11T03:24:45.318Z,-0.75
2023-02-11T03:27:29.084Z,-0.88
2023-02-11T03:30:00.101Z,-0.76
2023-02-11T03:32:32.812Z,-0.80
2023-02-11T03:35:07.775Z,-0.83
2023-02-11T03:37:43.668Z,-0.79
2023-02-11T03:40:19.217Z,-0.77
2023-02-11T03:42:52.687Z,-0.83
2023-02-11T03:45:22.876Z,-0.94
2023-02-11T03:47:56.221Z,-0.95
2023-02-11T03:50:25.963Z,-1.00
2023-02-11T03:52:54.476Z,-1.02
2023-02-11T03:55:25.923Z,-0.91
2023-02-11T03:57:53.349Z,-0.89
2023-02-11T04:00:20.842Z,-0.94
2023-02-11T04:02:48.179Z,-0.90
2023-02-11T04:05:16.442Z,-0.93
2023-02-11T04:07:43.719Z,-1.05
2023-02-11T04:10:12.427Z,-1.09
2023-02-11T04:12:39.817Z,-1.09
2023-02-11T04:15:07.871Z,-1.14
2023-02-11T04:17:35.433Z,-1.16
2023-02-11T04:20:03.490Z,-1.06
2023-02-11T04:22:31.267Z,-0.99
2023-02-11T04:24:58.709Z,-0.95
2023-02-11T04:27:26.121Z,-1.01
2023-02-11T04:29:54.397Z,-0.98
2023-02-11T04:32:21.783Z,-0.95
2023-02-11T04:34:49.213Z,-1.02
2023-02-11T04:37:16.527Z,-1.07
2023-02-11T04:39:43.849Z,-1.19
2023-02-11T04:42:11.323Z,-1.17
2023-02-11T04:44:38.881Z,-1.34
2023-02-11T04:47:06.857Z,-1.51
2023-02-11T04:49:37.203Z,-1.54
2023-02-11T04:52:05.099Z,-1.49
2023-02-11T04:54:32.487Z,-1.46
2023-02-11T04:56:59.826Z,-1.46
2023-02-11T04:59:27.464Z,-1.30
2023-02-11T05:01:55.953Z,-1.34
2023-02-11T05:04:23.693Z,-1.22
2023-02-11T05:06:51.063Z,-1.24
2023-02-11T05:09:18.494Z,-1.23
2023-02-11T05:11:45.944Z,-1.30
2023-02-11T05:14:13.301Z,-1.21
2023-02-11T05:16:40.723Z,-1.21
2023-02-11T05:19:08.078Z,-1.28
2023-02-11T05:21:36.591Z,-1.35
2023-02-11T05:24:04.339Z,-1.48
2023-02-11T05:26:32.444Z,-1.45
2023-02-11T05:28:59.998Z,-1.51
2023-02-11T05:31:27.454Z,-1.39
2023-02-11T05:33:54.743Z,-1.57
2023-02-11T05:36:22.128Z,-1.68
2023-02-11T05:38:50.661Z,-1.63
2023-02-11T05:41:18.025Z,-1.59
2023-02-11T05:43:47.671Z,-1.60
2023-02-11T05:46:15.015Z,-1.55
2023-02-11T05:48:42.362Z,-1.50
2023-02-11T05:51:09.709Z,-1.42
2023-02-11T05:53:37.159Z,-1.47
2023-02-11T05:56:07.387Z,-1.41
2023-02-11T05:58:34.744Z,-1.39
2023-02-11T06:01:02.154Z,-1.40
2023-02-11T06:03:29.501Z,-1.40
2023-02-11T06:05:56.843Z,-1.34
2023-02-11T06:08:24.214Z,-1.38
2023-02-11T06:10:51.607Z,-1.59
2023-02-11T06:13:19.785Z,-1.77
2023-02-11T06:15:56.372Z,-1.62
2023-02-11T06:18:24.110Z,-1.61
2023-02-11T06:20:51.512Z,-1.69
2023-02-11T06:23:18.895Z,-1.68
2023-02-11T06:25:46.270Z,-1.65
2023-02-11T06:28:13.681Z,-1.60
2023-02-11T06:30:41.733Z,-1.54
2023-02-11T06:33:09.096Z,-1.45
2023-02-11T06:35:39.003Z,-1.44
2023-02-11T06:38:06.292Z,-1.46
2023-02-11T06:40:33.733Z,-1.47
2023-02-11T06:43:01.061Z,-1.10
2023-02-11T06:45:28.498Z,-1.13
2023-02-11T06:47:55.792Z,-1.02
2023-02-11T06:50:23.202Z,-0.85
2023-02-11T06:52:50.486Z,-0.68
2023-02-11T06:55:17.895Z,0.24
2023-02-11T06:57:45.284Z,1.17
2023-02-11T07:00:13.475Z,1.79
2023-02-11T07:02:40.810Z,1.93
2023-02-11T07:05:08.673Z,2.06
2023-02-11T07:07:37.096Z,1.94
2023-02-11T07:10:05.821Z,1.99
2023-02-11T07:12:33.142Z,2.47
2023-02-11T07:15:00.608Z,2.97
2023-02-11T07:17:27.981Z,2.67
2023-02-11T07:19:55.410Z,2.30
2023-02-11T07:22:22.849Z,2.28
2023-02-11T07:24:50.537Z,2.14
2023-02-11T07:27:20.720Z,2.39
2023-02-11T07:29:48.757Z,2.63
2023-02-11T07:32:16.246Z,3.13
2023-02-11T07:34:43.619Z,3.41
2023-02-11T07:37:10.977Z,3.28
2023-02-11T07:39:38.416Z,3.27
2023-02-11T07:42:06.017Z,3.21
2023-02-11T07:44:33.419Z,3.44
2023-02-11T07:47:00.881Z,3.90
2023-02-11T07:49:28.718Z,4.91
2023-02-11T07:51:56.010Z,5.85
2023-02-11T07:54:23.408Z,7.20
2023-02-11T07:56:50.840Z,7.19
2023-02-11T07:59:18.389Z,6.94
2023-02-11T08:01:45.854Z,7.51
2023-02-11T08:04:13.277Z,8.21
2023-02-11T08:06:42.930Z,7.65
2023-02-11T08:09:16.905Z,7.38
2023-02-11T08:11:44.793Z,7.49
2023-02-11T08:14:12.417Z,7.56
2023-02-11T08:16:39.975Z,7.64
2023-02-11T08:19:11.833Z,8.13
2023-02-11T08:21:40.268Z,8.56
2023-02-11T08:24:07.899Z,9.22
2023-02-11T08:26:35.980Z,9.15
2023-02-11T08:29:10.670Z,9.29
2023-02-11T08:31:41.083Z,9.37
2023-02-11T08:34:11.623Z,9.63
2023-02-11T08:36:40.606Z,10.08
2023-02-11T08:39:19.291Z,9.59
2023-02-11T08:41:49.489Z,9.56
2023-02-11T08:44:18.548Z,10.47
2023-02-11T08:46:46.135Z,10.40
2023-02-11T08:49:14.200Z,10.50
2023-02-11T08:51:41.864Z,10.57
2023-02-11T08:54:10.044Z,10.54
2023-02-11T08:56:38.658Z,10.98
2023-02-11T08:59:07.224Z,10.68
2023-02-11T09:01:35.005Z,10.66
2023-02-11T09:04:02.499Z,9.82
2023-02-11T09:06:29.929Z,9.91
2023-02-11T09:08:58.261Z,10.27
2023-02-11T09:11:35.778Z,10.41
2023-02-11T09:14:04.761Z,10.57
2023-02-11T09:16:35.755Z,10.30
2023-02-11T09:19:04.803Z,10.03
2023-02-11T09:21:33.062Z,10.59
2023-02-11T09:24:00.610Z,11.62
2023-02-11T09:26:32.785Z,11.63
2023-02-11T09:29:01.155Z,12.35
2023-02-11T09:31:30.663Z,12.07
2023-02-11T09:34:01.851Z,12.88
2023-02-11T09:36:31.728Z,12.82
2023-02-11T09:39:00.940Z,11.75
2023-02-11T09:41:58.502Z,10.71
2023-02-11T09:44:29.476Z,9.66
2023-02-11T09:47:00.363Z,9.59
2023-02-11T09:49:47.616Z,9.59
2023-02-11T09:52:33.314Z,9.70
2023-02-11T09:55:03.245Z,9.52
2023-02-11T09:57:36.514Z,9.30
2023-02-11T10:00:18.781Z,8.85
2023-02-11T10:02:58.267Z,8.80
2023-02-11T10:05:43.159Z,8.76
2023-02-11T10:08:21.288Z,8.52
2023-02-11T10:11:04.156Z,7.94
2023-02-11T10:14:01.421Z,7.65
2023-02-11T10:16:44.949Z,7.53
2023-02-11T10:19:15.064Z,7.52
2023-02-11T10:21:58.489Z,8.20
2023-02-11T10:24:29.030Z,8.82
2023-02-11T10:26:59.355Z,9.17
2023-02-11T10:29:40.628Z,9.42
2023-02-11T10:32:24.923Z,9.30
2023-02-11T10:34:54.312Z,9.21
2023-02-11T10:37:21.676Z,8.85
2023-02-11T10:39:49.040Z,9.32
2023-02-11T10:42:19.380Z,9.16
2023-02-11T10:45:05.002Z,8.79
2023-02-11T10:47:37.949Z,8.70
2023-02-11T10:50:40.521Z,7.98
2023-02-11T10:53:21.035Z,7.93
2023-02-11T10:55:52.423Z,7.36
2023-02-11T10:58:26.368Z,7.19
2023-02-11T11:00:58.976Z,7.05
2023-02-11T11:03:31.254Z,7.22
2023-02-11T11:06:01.238Z,7.64
2023-02-11T11:08:40.401Z,8.17
2023-02-11T11:11:13.867Z,8.47
2023-02-11T11:13:54.185Z,8.57
2023-02-11T11:16:27.104Z,8.69
2023-02-11T11:19:07.645Z,9.33
2023-02-11T11:21:43.094Z,9.58
2023-02-11T11:24:40.069Z,10.07
2023-02-11T11:27:16.694Z,9.46
2023-02-11T11:29:51.353Z,9.43
2023-02-11T11:32:33.586Z,9.94
2023-02-11T11:35:10.061Z,10.49
2023-02-11T11:37:39.165Z,10.23
2023-02-11T11:40:22.623Z,9.76
2023-02-11T11:43:07.347Z,9.50
2023-02-11T11:45:34.787Z,9.27
2023-02-11T11:48:14.070Z,8.71
2023-02-11T11:50:45.286Z,8.87
2023-02-11T11:53:20.785Z,8.68
2023-02-11T11:56:00.206Z,8.37
2023-02-11T11:58:29.006Z,8.48
2023-02-11T12:01:08.285Z,8.53
2023-02-11T12:04:23.353Z,8.61
2023-02-11T12:07:25.745Z,8.47
2023-02-11T12:09:58.905Z,8.82
2023-02-11T12:13:05.951Z,9.28
2023-02-11T12:15:44.501Z,9.64
2023-02-11T12:18:45.584Z,9.87
2023-02-11T12:21:33.284Z,10.13
2023-02-11T12:24:30.086Z,9.73
2023-02-11T12:27:13.231Z,10.10
2023-02-11T12:29:55.004Z,9.84
2023-02-11T12:32:40.836Z,9.71
2023-02-11T12:35:32.704Z,9.96
2023-02-11T12:38:19.053Z,9.18
2023-02-11T12:40:59.076Z,8.90
2023-02-11T12:43:38.406Z,8.98
2023-02-11T12:46:30.126Z,9.55
2023-02-11T12:49:20.289Z,10.11
2023-02-11T12:51:58.293Z,10.24
2023-02-11T12:54:40.623Z,10.18
2023-02-11T12:57:15.063Z,10.29
2023-02-11T12:59:50.053Z,10.64
2023-02-11T13:02:41.492Z,10.65
2023-02-11T13:05:27.082Z,10.92
2023-02-11T13:08:02.961Z,11.03
2023-02-11T13:10:43.071Z,10.93
2023-02-11T13:13:37.224Z,11.30
2023-02-11T13:16:20.357Z,11.43
2023-02-11T13:19:06.606Z,11.39
2023-02-11T13:21:43.976Z,10.98
2023-02-11T13:24:19.790Z,10.65
2023-02-11T13:27:20.945Z,10.85
2023-02-11T13:30:11.504Z,10.77
2023-02-11T13:32:54.009Z,11.12
2023-02-11T13:35:39.635Z,11.33
2023-02-11T13:38:28.373Z,11.19
2023-02-11T13:41:04.430Z,11.20
2023-02-11T13:43:34.300Z,11.36
2023-02-11T13:46:11.820Z,11.54
2023-02-11T13:48:46.668Z,11.34
2023-02-11T13:51:17.825Z,11.28
2023-02-11T13:53:53.460Z,11.07
2023-02-11T13:56:31.501Z,10.89
2023-02-11T13:59:02.294Z,11.07
2023-02-11T14:02:06.896Z,11.39
2023-02-11T14:04:53.189Z,11.21
2023-02-11T14:07:49.269Z,11.04
2023-02-11T14:10:41.596Z,10.88
2023-02-11T14:13:27.785Z,10.84
2023-02-11T14:16:36.460Z,10.78
2023-02-11T14:19:06.207Z,11.03
2023-02-11T14:21:41.477Z,10.87
2023-02-11T14:24:15.640Z,10.89
2023-02-11T14:27:04.957Z,11.02
2023-02-11T14:29:51.004Z,11.07
2023-02-11T14:32:49.160Z,11.13
2023-02-11T14:35:39.447Z,10.75
2023-02-11T14:38:43.699Z,10.80
2023-02-11T14:41:19.606Z,10.67
2023-02-11T14:43:51.599Z,10.61
2023-02-11T14:46:24.278Z,10.60
2023-02-11T14:48:55.334Z,10.46
2023-02-11T14:51:31.296Z,10.53
2023-02-11T14:54:23.526Z,10.51
2023-02-11T14:57:17.213Z,10.47
2023-02-11T15:00:05.691Z,10.45
2023-02-11T15:02:36.980Z,10.48
2023-02-11T15:05:17.336Z,10.45
2023-02-11T15:07:56.999Z,10.32
2023-02-11T15:10:35.273Z,10.26
2023-02-11T15:13:04.760Z,10.30
2023-02-11T15:15:33.038Z,10.33
2023-02-11T15:18:03.309Z,10.29
2023-02-11T15:20:33.596Z,10.25
2023-02-11T15:23:04.169Z,10.33
2023-02-11T15:25:34.033Z,10.32
2023-02-11T15:28:28.881Z,10.27
2023-02-11T15:30:58.867Z,10.18
2023-02-11T15:33:26.384Z,10.15
2023-02-11T15:35:53.745Z,10.04
2023-02-11T15:38:21.049Z,10.08
2023-02-11T15:41:00.852Z,10.07
2023-02-11T15:43:46.278Z,10.10
2023-02-11T15:46:39.807Z,9.92
2023-02-11T15:49:19.164Z,9.80
2023-02-11T15:51:47.118Z,9.77
2023-02-11T15:54:30.001Z,9.64
2023-02-11T15:57:07.527Z,9.69
2023-02-11T15:59:41.592Z,9.60
2023-02-11T16:02:25.673Z,9.60
2023-02-11T16:04:58.904Z,9.39
2023-02-11T16:07:38.529Z,9.30
2023-02-11T16:10:29.943Z,9.32
2023-02-11T16:13:06.435Z,9.07
2023-02-11T16:15:33.899Z,8.91
2023-02-11T16:18:12.783Z,8.79
2023-02-11T16:20:41.980Z,8.68
2023-02-11T16:23:22.018Z,8.78
2023-02-11T16:25:54.845Z,8.70
2023-02-11T16:28:22.397Z,8.59
2023-02-11T16:30:54.178Z,8.46
2023-02-11T16:33:21.865Z,8.41
2023-02-11T16:35:49.374Z,8.26
2023-02-11T16:38:19.577Z,8.33
2023-02-11T16:40:49.350Z,8.29
2023-02-11T16:43:20.281Z,8.09
2023-02-11T16:45:48.229Z,8.17
2023-02-11T16:48:19.208Z,8.03
2023-02-11T16:50:52.224Z,7.95
2023-02-11T16:53:24.188Z,7.77
2023-02-11T16:55:54.219Z,7.67
2023-02-11T16:58:21.676Z,7.59
2023-02-11T17:00:49.651Z,7.64
2023-02-11T17:03:26.145Z,7.58
2023-02-11T17:05:55.932Z,7.48
2023-02-11T17:08:23.540Z,7.32
2023-02-11T17:10:51.184Z,7.30
2023-02-11T17:13:18.879Z,7.16
2023-02-11T17:15:46.258Z,7.09
2023-02-11T17:18:16.897Z,7.03
2023-02-11T17:20:44.288Z,6.98
2023-02-11T17:23:11.666Z,7.07
2023-02-11T17:25:39.023Z,7.00
2023-02-11T17:28:08.248Z,6.92
2023-02-11T17:30:35.787Z,6.94
2023-02-11T17:33:03.147Z,6.87
2023-02-11T17:35:30.478Z,6.84
2023-02-11T17:37:58.721Z,6.79
2023-02-11T17:40:26.404Z,6.73
2023-02-11T17:42:53.779Z,6.69
2023-02-11T17:45:22.469Z,6.58
2023-02-11T17:47:49.956Z,6.57
2023-02-11T17:50:17.467Z,6.51
2023-02-11T17:52:45.035Z,6.48
2023-02-11T17:55:12.392Z,6.48
2023-02-11T17:57:40.451Z,6.40
2023-02-11T18:00:09.515Z,6.36
2023-02-11T18:02:45.366Z,6.51
2023-02-11T18:05:12.709Z,6.51
2023-02-11T18:07:40.431Z,6.41
2023-02-11T18:10:08.720Z,6.47
2023-02-11T18:12:36.177Z,6.50
2023-02-11T18:15:03.626Z,6.44
2023-02-11T18:17:31.067Z,6.28
2023-02-11T18:19:58.777Z,6.38
2023-02-11T18:22:26.747Z,6.43
2023-02-11T18:24:55.113Z,6.42
2023-02-11T18:27:22.578Z,6.32
2023-02-11T18:29:50.263Z,6.23
2023-02-11T18:32:17.610Z,6.21
2023-02-11T18:34:44.893Z,6.19
2023-02-11T18:37:14.299Z,6.16
2023-02-11T18:39:42.349Z,6.06
2023-02-11T18:42:10.327Z,6.06
2023-02-11T18:44:37.703Z,6.01
2023-02-11T18:47:05.079Z,6.04
2023-02-11T18:49:36.199Z,5.95
2023-02-11T18:52:03.935Z,6.00
2023-02-11T18:54:31.288Z,5.99
2023-02-11T18:56:58.672Z,5.92
2023-02-11T18:59:25.997Z,5.97
2023-02-11T19:01:53.344Z,5.97
2023-02-11T19:04:23.341Z,5.78
2023-02-11T19:06:50.933Z,5.68
2023-02-11T19:09:19.982Z,5.63
2023-02-11T19:11:47.963Z,5.57
2023-02-11T19:14:18.364Z,5.53
2023-02-11T19:16:46.425Z,5.50
2023-02-11T19:19:14.167Z,5.45
2023-02-11T19:21:43.780Z,5.19
2023-02-11T19:24:12.823Z,4.98
2023-02-11T19:26:40.178Z,4.93
2023-02-11T19:29:07.797Z,4.90
2023-02-11T19:31:35.369Z,4.93
2023-02-11T19:34:03.455Z,4.90
2023-02-11T19:36:31.030Z,4.85
2023-02-11T19:39:02.117Z,4.84
2023-02-11T19:41:30.652Z,4.79
2023-02-11T19:43:58.037Z,4.76
2023-02-11T19:46:28.115Z,4.69
2023-02-11T19:48:55.611Z,4.55
2023-02-11T19:51:22.955Z,4.42
2023-02-11T19:53:51.275Z,4.41
2023-02-11T19:56:20.827Z,4.41
2023-02-11T19:58:48.324Z,4.20
2023-02-11T20:01:18.901Z,4.05
2023-02-11T20:03:49.979Z,4.07
2023-02-11T20:06:23.278Z,4.05
2023-02-11T20:08:59.110Z,4.00
2023-02-11T20:11:28.880Z,3.77
2023-02-11T20:13:57.282Z,3.81
2023-02-11T20:16:44.570Z,3.80
2023-02-11T20:19:17.818Z,3.86
2023-02-11T20:21:47.560Z,3.80
2023-02-11T20:24:17.472Z,3.80
2023-02-11T20:26:46.914Z,3.84
2023-02-11T20:29:15.930Z,3.86
2023-02-11T20:31:43.577Z,3.89
2023-02-11T20:34:12.123Z,3.89
2023-02-11T20:36:40.635Z,3.90
2023-02-11T20:39:08.987Z,3.74
2023-02-11T20:41:39.857Z,3.68
2023-02-11T20:44:09.979Z,3.69
2023-02-11T20:46:40.332Z,3.74
2023-02-11T20:49:08.810Z,3.66
2023-02-11T20:51:37.351Z,3.66
2023-02-11T20:54:06.332Z,3.63
2023-02-11T20:56:36.814Z,3.57
2023-02-11T20:59:05.829Z,3.61
2023-02-11T21:01:42.474Z,3.64
2023-02-11T21:04:13.182Z,3.62
2023-02-11T21:06:45.377Z,3.69
2023-02-11T21:09:22.072Z,3.62
2023-02-11T21:11:51.603Z,3.62
2023-02-11T21:14:19.970Z,3.59
2023-02-11T21:16:48.181Z,3.54
2023-02-11T21:19:18.497Z,3.53
2023-02-11T21:21:45.927Z,3.53
2023-02-11T21:24:13.389Z,3.51
2023-02-11T21:26:40.898Z,3.46
2023-02-11T21:29:08.714Z,3.40
2023-02-11T21:31:37.849Z,3.30
2023-02-11T21:34:06.362Z,3.24
2023-02-11T21:36:34.148Z,3.04
2023-02-11T21:39:03.816Z,2.94
2023-02-11T21:41:31.295Z,3.03
2023-02-11T21:43:58.603Z,2.80
2023-02-11T21:46:28.990Z,2.81
2023-02-11T21:48:57.412Z,2.74
2023-02-11T21:51:26.248Z,2.78
2023-02-11T21:53:59.244Z,2.76
2023-02-11T21:56:28.228Z,2.71
2023-02-11T21:58:57.606Z,2.72
2023-02-11T22:01:30.965Z,2.75
2023-02-11T22:03:58.898Z,2.87
2023-02-11T22:06:31.080Z,2.75
2023-02-11T22:09:01.585Z,2.74
2023-02-11T22:11:31.616Z,2.71
2023-02-11T22:13:59.291Z,2.72
2023-02-11T22:16:27.669Z,2.70
2023-02-11T22:18:58.374Z,2.75
2023-02-11T22:21:25.988Z,2.71
2023-02-11T22:23:54.591Z,2.71
2023-02-11T22:26:23.727Z,2.59
2023-02-11T22:28:52.021Z,2.51
2023-02-11T22:31:22.359Z,2.53
2023-02-11T22:33:50.065Z,2.50
2023-02-11T22:36:26.948Z,2.51
2023-02-11T22:38:54.949Z,2.52
2023-02-11T22:41:23.199Z,2.56
2023-02-11T22:43:50.534Z,2.56
2023-02-11T22:46:19.586Z,2.58
2023-02-11T22:48:48.962Z,2.50
2023-02-11T22:51:19.760Z,2.48
2023-02-11T22:53:57.216Z,2.54
2023-02-11T22:56:24.899Z,2.59
2023-02-11T22:58:55.764Z,2.55
2023-02-11T23:01:23.271Z,2.60
2023-02-11T23:03:50.680Z,2.66
2023-02-11T23:06:18.180Z,2.56
2023-02-11T23:08:46.420Z,2.55
2023-02-11T23:11:20.197Z,2.45
2023-02-11T23:13:49.773Z,2.43
2023-02-11T23:16:19.650Z,2.25
2023-02-11T23:18:48.439Z,2.39
2023-02-11T23:21:22.177Z,2.41
2023-02-11T23:23:53.742Z,2.31
2023-02-11T23:26:21.238Z,2.23
2023-02-11T23:28:48.603Z,2.19
2023-02-11T23:31:23.681Z,2.11
2023-02-11T23:33:51.615Z,2.04
2023-02-11T23:36:21.091Z,2.01
2023-02-11T23:38:48.900Z,2.00
2023-02-11T23:41:17.145Z,2.16
2023-02-11T23:43:44.585Z,2.20
2023-02-11T23:46:12.032Z,2.18
2023-02-11T23:48:41.315Z,2.15
2023-02-11T23:51:11.665Z,2.06
2023-02-11T23:53:39.538Z,2.11
2023-02-11T23:56:13.988Z,2.10
2023-02-11T23:58:41.382Z,1.73
